createdAt,value
2023-03-08T00:02:17.828Z,94108.19
2023-03-08T00:04:45.493Z,94107.66
2023-03-08T00:07:13.219Z,94121.66
2023-03-08T00:09:42.220Z,94130.78
2023-03-08T00:12:10.633Z,94119.53
2023-03-08T00:14:38.568Z,94123.81
2023-03-08T00:17:06.976Z,94130.84
2023-03-08T00:19:34.648Z,94131.13
2023-03-08T00:22:04.735Z,94134.63
2023-03-08T00:24:32.592Z,94134.38
2023-03-08T00:27:01.849Z,94135.19
2023-03-08T00:29:29.538Z,94142.19
2023-03-08T00:31:57.237Z,94133.06
2023-03-08T00:34:24.860Z,94149.25
2023-03-08T00:36:52.505Z,94139.53
2023-03-08T00:39:20.319Z,94153.22
2023-03-08T00:41:47.965Z,94135.50
2023-03-08T00:44:16.974Z,94139.81
2023-03-08T00:46:46.846Z,94137.91
2023-03-08T00:49:17.218Z,94136.84
2023-03-08T00:51:44.820Z,94133.63
2023-03-08T00:54:12.449Z,94124.78
2023-03-08T00:56:40.118Z,94118.56
2023-03-08T00:59:09.543Z,94136.03
2023-03-08T01:01:38.578Z,94131.75
2023-03-08T01:04:06.479Z,94130.94
2023-03-08T01:06:34.146Z,94134.97
2023-03-08T01:09:01.926Z,94131.47
2023-03-08T01:11:29.614Z,94129.59
2023-03-08T01:13:57.386Z,94128.84
2023-03-08T01:16:27.013Z,94136.97
2023-03-08T01:18:56.961Z,94136.75
2023-03-08T01:21:25.694Z,94130.97
2023-03-08T01:23:54.336Z,94132.06
2023-03-08T01:26:24.550Z,94135.91
2023-03-08T01:28:53.151Z,94126.28
2023-03-08T01:31:22.655Z,94139.47
2023-03-08T01:33:51.060Z,94139.22
2023-03-08T01:36:22.337Z,94127.97
2023-03-08T01:38:50.458Z,94130.72
2023-03-08T01:41:20.061Z,94123.22
2023-03-08T01:43:47.990Z,94131.31
2023-03-08T01:46:26.142Z,94126.75
2023-03-08T01:49:14.573Z,94141.78
2023-03-08T01:51:47.477Z,94139.63
2023-03-08T01:54:18.488Z,94123.00
2023-03-08T01:56:51.828Z,94116.59
2023-03-08T01:59:23.505Z,94113.91
2023-03-08T02:01:53.162Z,94104.28
2023-03-08T02:04:21.569Z,94104.31
2023-03-08T02:06:50.627Z,94102.44
2023-03-08T02:09:22.036Z,94107.53
2023-03-08T02:11:50.547Z,94101.88
2023-03-08T02:14:18.222Z,94098.69
2023-03-08T02:16:45.981Z,94097.88
2023-03-08T02:19:18.255Z,94092.84
2023-03-08T02:21:45.901Z,94095.81
2023-03-08T02:24:23.319Z,94108.97
2023-03-08T02:26:53.640Z,94095.81
2023-03-08T02:29:21.423Z,94086.44
2023-03-08T02:31:49.063Z,94083.25
2023-03-08T02:34:16.715Z,94081.63
2023-03-08T02:36:44.876Z,94080.31
2023-03-08T02:39:15.479Z,94081.66
2023-03-08T02:41:44.490Z,94085.69
2023-03-08T02:44:12.184Z,94068.56
2023-03-08T02:46:42.276Z,94063.72
2023-03-08T02:49:09.948Z,94071.25
2023-03-08T02:51:39.700Z,94071.00
2023-03-08T02:54:10.967Z,94069.94
2023-03-08T02:56:38.671Z,94074.19
2023-03-08T02:59:08.190Z,94076.59
2023-03-08T03:01:36.452Z,94077.13
2023-03-08T03:04:07.847Z,94076.81
2023-03-08T03:06:35.522Z,94079.72
2023-03-08T03:09:07.239Z,94082.34
2023-03-08T03:11:34.879Z,94080.72
2023-03-08T03:14:03.305Z,94076.41
2023-03-08T03:16:35.049Z,94080.63
2023-03-08T03:19:02.662Z,94086.50
2023-03-08T03:21:30.306Z,94076.44
2023-03-08T03:23:58.052Z,94072.66
2023-03-08T03:26:26.206Z,94071.81
2023-03-08T03:28:57.324Z,94066.72
2023-03-08T03:31:25.620Z,94060.28
2023-03-08T03:33:54.709Z,94059.72
2023-03-08T03:36:23.090Z,94068.44
2023-03-08T03:38:51.325Z,94060.06
2023-03-08T03:41:22.090Z,94054.63
2023-03-08T03:43:50.567Z,94061.97
2023-03-08T03:46:21.591Z,94057.84
2023-03-08T03:48:49.493Z,94052.78
2023-03-08T03:51:20.419Z,94051.72
2023-03-08T03:53:51.756Z,94044.50
2023-03-08T03:56:21.577Z,94051.91
2023-03-08T03:58:50.289Z,94054.22
2023-03-08T04:01:21.137Z,94055.44
2023-03-08T04:03:49.217Z,94064.47
2023-03-08T04:06:20.655Z,94048.19
2023-03-08T04:08:52.550Z,94053.19
2023-03-08T04:11:22.806Z,94056.13
2023-03-08T04:13:50.850Z,94051.03
2023-03-08T04:16:20.131Z,94054.81
2023-03-08T04:18:48.287Z,94046.56
2023-03-08T04:21:16.095Z,94045.81
2023-03-08T04:23:45.041Z,94042.88
2023-03-08T04:26:13.610Z,94039.16
2023-03-08T04:28:41.554Z,94036.00
2023-03-08T04:31:14.143Z,94038.72
2023-03-08T04:33:48.243Z,94021.97
2023-03-08T04:36:16.759Z,94018.25
2023-03-08T04:38:47.087Z,94014.25
2023-03-08T04:41:15.644Z,94011.63
2023-03-08T04:43:46.768Z,94006.34
2023-03-08T04:46:15.277Z,94010.63
2023-03-08T04:48:43.099Z,93998.41
2023-03-08T04:51:14.029Z,94001.34
2023-03-08T04:53:44.566Z,93992.28
2023-03-08T04:56:15.322Z,93982.97
2023-03-08T04:58:44.712Z,93979.00
2023-03-08T05:01:14.157Z,93981.97
2023-03-08T05:03:42.525Z,93972.34
2023-03-08T05:06:10.842Z,93977.72
2023-03-08T05:08:38.550Z,93972.94
2023-03-08T05:11:06.918Z,93975.09
2023-03-08T05:13:40.035Z,93956.75
2023-03-08T05:16:08.904Z,93950.63
2023-03-08T05:18:37.005Z,93958.63
2023-03-08T05:21:07.501Z,93942.63
2023-03-08T05:23:35.832Z,93931.97
2023-03-08T05:26:05.521Z,93935.50
2023-03-08T05:28:35.117Z,93926.97
2023-03-08T05:31:06.325Z,93930.97
2023-03-08T05:33:35.074Z,93929.13
2023-03-08T05:36:03.494Z,93926.22
2023-03-08T05:38:31.861Z,93931.88
2023-03-08T05:41:01.929Z,93928.97
2023-03-08T05:43:29.669Z,93913.78
2023-03-08T05:45:58.414Z,93910.84
2023-03-08T05:48:27.557Z,93904.13
2023-03-08T05:50:55.554Z,93905.72
2023-03-08T05:53:23.605Z,93911.31
2023-03-08T05:55:52.859Z,93910.50
2023-03-08T05:58:20.474Z,93909.41
2023-03-08T06:00:48.121Z,93907.81
2023-03-08T06:03:16.101Z,93912.63
2023-03-08T06:05:45.117Z,93910.47
2023-03-08T06:08:12.739Z,93903.84
2023-03-08T06:10:40.359Z,93907.56
2023-03-08T06:13:07.976Z,93901.16
2023-03-08T06:15:35.628Z,93911.06
2023-03-08T06:18:03.309Z,93904.66
2023-03-08T06:20:33.211Z,93896.69
2023-03-08T06:23:02.218Z,93895.09
2023-03-08T06:25:29.927Z,93912.19
2023-03-08T06:27:57.585Z,93913.00
2023-03-08T06:30:25.348Z,93910.06
2023-03-08T06:32:53.035Z,93910.31
2023-03-08T06:35:22.334Z,93902.00
2023-03-08T06:37:50.025Z,93904.91
2023-03-08T06:40:20.803Z,93900.31
2023-03-08T06:42:48.485Z,93908.31
2023-03-08T06:45:18.867Z,93908.28
2023-03-08T06:47:48.185Z,93906.91
2023-03-08T06:50:16.179Z,93906.59
2023-03-08T06:52:43.845Z,93915.16
2023-03-08T06:55:12.680Z,93916.22
2023-03-08T06:57:41.685Z,93910.00
2023-03-08T07:00:12.286Z,93914.28
2023-03-08T07:02:39.940Z,93914.28
2023-03-08T07:05:08.219Z,93917.75
2023-03-08T07:07:36.765Z,93920.66
2023-03-08T07:10:05.278Z,93919.03
2023-03-08T07:12:33.162Z,93918.41
2023-03-08T07:15:02.174Z,93915.19
2023-03-08T07:17:29.847Z,93912.19
2023-03-08T07:19:57.510Z,93911.66
2023-03-08T07:22:25.269Z,93925.25
2023-03-08T07:24:52.948Z,93929.47
2023-03-08T07:27:20.885Z,93930.47
2023-03-08T07:29:48.555Z,93936.09
2023-03-08T07:32:17.931Z,93932.84
2023-03-08T07:34:46.138Z,93913.22
2023-03-08T07:37:14.501Z,93912.06
2023-03-08T07:39:42.568Z,93904.47
2023-03-08T07:42:11.732Z,93908.69
2023-03-08T07:44:39.359Z,93905.34
2023-03-08T07:47:09.113Z,93898.97
2023-03-08T07:49:38.116Z,93905.25
2023-03-08T07:52:06.372Z,93902.34
2023-03-08T07:54:34.204Z,93897.06
2023-03-08T07:57:02.077Z,93909.50
2023-03-08T07:59:30.191Z,93908.59
2023-03-08T08:01:57.929Z,93887.47
2023-03-08T08:04:25.663Z,93882.38
2023-03-08T08:06:54.729Z,93867.53
2023-03-08T08:09:22.409Z,93858.34
2023-03-08T08:11:50.105Z,93854.00
2023-03-08T08:14:17.757Z,93863.00
2023-03-08T08:16:45.568Z,93852.75
2023-03-08T08:19:14.635Z,93851.78
2023-03-08T08:21:43.502Z,93851.28
2023-03-08T08:24:12.601Z,93820.59
2023-03-08T08:26:40.510Z,93812.81
2023-03-08T08:29:08.856Z,93801.91
2023-03-08T08:31:36.680Z,93803.44
2023-03-08T08:34:04.490Z,93794.22
2023-03-08T08:36:32.204Z,93782.41
2023-03-08T08:38:59.925Z,93771.00
2023-03-08T08:41:29.678Z,93754.69
2023-03-08T08:43:59.439Z,93748.19
2023-03-08T08:46:28.546Z,93740.66
2023-03-08T08:48:56.942Z,93731.41
2023-03-08T08:51:24.770Z,93725.19
2023-03-08T08:53:52.614Z,93722.91
2023-03-08T08:56:27.536Z,93717.31
2023-03-08T08:58:57.318Z,93715.97
2023-03-08T09:01:27.011Z,93719.19
2023-03-08T09:03:55.090Z,93721.38
2023-03-08T09:06:24.067Z,93713.34
2023-03-08T09:08:51.836Z,93711.13
2023-03-08T09:11:19.806Z,93710.66
2023-03-08T09:13:47.569Z,93698.25
2023-03-08T09:16:21.811Z,93689.53
2023-03-08T09:18:49.986Z,93688.13
2023-03-08T09:21:18.148Z,93692.75
2023-03-08T09:23:46.508Z,93688.13
2023-03-08T09:26:14.480Z,93681.44
2023-03-08T09:28:42.163Z,93667.44
2023-03-08T09:31:12.926Z,93668.91
2023-03-08T09:33:43.797Z,93648.72
2023-03-08T09:36:11.915Z,93640.50
2023-03-08T09:38:39.705Z,93647.19
2023-03-08T09:41:31.998Z,93655.34
2023-03-08T09:44:13.113Z,93642.94
2023-03-08T09:46:47.172Z,93637.69
2023-03-08T09:49:20.577Z,93630.19
2023-03-08T09:51:54.003Z,93631.28
2023-03-08T09:54:25.713Z,93626.97
2023-03-08T09:56:56.296Z,93631.91
2023-03-08T09:59:32.693Z,93639.19
2023-03-08T10:02:05.690Z,93648.03
2023-03-08T10:04:47.270Z,93631.66
2023-03-08T10:07:26.017Z,93609.59
2023-03-08T10:10:13.338Z,93609.50
2023-03-08T10:12:56.919Z,93614.09
2023-03-08T10:15:27.986Z,93617.25
2023-03-08T10:18:00.593Z,93615.63
2023-03-08T10:20:32.662Z,93621.47
2023-03-08T10:23:02.638Z,93624.75
2023-03-08T10:25:34.016Z,93616.94
2023-03-08T10:28:03.084Z,93608.53
2023-03-08T10:30:35.190Z,93617.75
2023-03-08T10:33:08.539Z,93631.59
2023-03-08T10:35:39.583Z,93646.06
2023-03-08T10:38:17.243Z,93655.94
2023-03-08T10:40:45.122Z,93652.28
2023-03-08T10:43:20.560Z,93655.47
2023-03-08T10:45:59.870Z,93659.59
2023-03-08T10:48:27.566Z,93641.31
2023-03-08T10:51:05.176Z,93634.44
2023-03-08T10:53:33.689Z,93642.53
2023-03-08T10:56:02.666Z,93653.19
2023-03-08T10:58:35.056Z,93672.34
2023-03-08T11:01:05.560Z,93677.13
2023-03-08T11:03:33.885Z,93679.19
2023-03-08T11:06:05.320Z,93674.91
2023-03-08T11:08:38.933Z,93666.78
2023-03-08T11:11:10.354Z,93670.59
2023-03-08T11:13:41.767Z,93668.06
2023-03-08T11:16:54.675Z,93665.50
2023-03-08T11:19:36.195Z,93657.22
2023-03-08T11:22:17.954Z,93652.56
2023-03-08T11:24:56.891Z,93656.72
2023-03-08T11:27:36.793Z,93657.31
2023-03-08T11:30:18.212Z,93650.31
2023-03-08T11:33:00.950Z,93644.25
2023-03-08T11:35:36.104Z,93642.03
2023-03-08T11:38:12.758Z,93629.78
2023-03-08T11:40:53.154Z,93614.25
2023-03-08T11:43:38.364Z,93596.00
2023-03-08T11:46:17.041Z,93587.91
2023-03-08T11:49:17.711Z,93578.88
2023-03-08T11:51:53.931Z,93572.34
2023-03-08T11:54:35.608Z,93569.78
2023-03-08T11:57:05.416Z,93565.81
2023-03-08T11:59:36.682Z,93557.69
2023-03-08T12:02:16.270Z,93549.56
2023-03-08T12:04:53.032Z,93554.94
2023-03-08T12:07:25.800Z,93562.91
2023-03-08T12:10:00.559Z,93555.72
2023-03-08T12:12:32.088Z,93563.50
2023-03-08T12:15:07.621Z,93550.94
2023-03-08T12:17:38.354Z,93551.41
2023-03-08T12:20:14.097Z,93547.97
2023-03-08T12:22:47.026Z,93537.84
2023-03-08T12:25:26.242Z,93546.53
2023-03-08T12:28:01.033Z,93542.72
2023-03-08T12:30:40.116Z,93533.69
2023-03-08T12:33:12.797Z,93540.53
2023-03-08T12:35:53.263Z,93535.97
2023-03-08T12:38:34.168Z,93527.94
2023-03-08T12:41:04.251Z,93529.78
2023-03-08T12:43:34.020Z,93532.53
2023-03-08T12:46:05.506Z,93537.00
2023-03-08T12:48:37.641Z,93534.25
2023-03-08T12:51:20.125Z,93528.28
2023-03-08T12:53:59.228Z,93525.13
2023-03-08T12:56:32.150Z,93528.97
2023-03-08T12:59:01.877Z,93539.38
2023-03-08T13:01:36.471Z,93531.09
2023-03-08T13:04:05.989Z,93536.00
2023-03-08T13:07:01.537Z,93539.06
2023-03-08T13:09:32.460Z,93523.78
2023-03-08T13:12:13.186Z,93546.09
2023-03-08T13:14:43.351Z,93542.63
2023-03-08T13:17:44.769Z,93537.75
2023-03-08T13:20:18.511Z,93541.72
2023-03-08T13:22:58.700Z,93532.34
2023-03-08T13:25:49.993Z,93521.97
2023-03-08T13:28:21.955Z,93542.09
2023-03-08T13:30:52.669Z,93524.72
2023-03-08T13:33:24.315Z,93532.44
2023-03-08T13:35:56.971Z,93499.53
2023-03-08T13:38:27.637Z,93516.50
2023-03-08T13:40:57.507Z,93533.50
2023-03-08T13:43:28.270Z,93518.97
2023-03-08T13:45:58.950Z,93537.91
2023-03-08T13:48:31.243Z,93522.72
2023-03-08T13:51:00.463Z,93517.94
2023-03-08T13:53:31.636Z,93520.31
2023-03-08T13:56:02.232Z,93517.59
2023-03-08T13:58:35.429Z,93535.34
2023-03-08T14:01:10.448Z,93511.91
2023-03-08T14:03:39.067Z,93530.88
2023-03-08T14:06:18.044Z,93485.28
2023-03-08T14:08:47.321Z,93506.72
2023-03-08T14:11:18.476Z,93502.34
2023-03-08T14:13:51.559Z,93497.09
2023-03-08T14:16:29.930Z,93503.53
2023-03-08T14:18:58.693Z,93488.78
2023-03-08T14:21:28.555Z,93495.63
2023-03-08T14:23:57.817Z,93484.78
2023-03-08T14:26:32.045Z,93490.13
2023-03-08T14:29:14.048Z,93488.31
2023-03-08T14:31:55.473Z,93499.53
2023-03-08T14:34:25.522Z,93488.09
2023-03-08T14:36:58.395Z,93505.13
2023-03-08T14:39:28.801Z,93497.41
2023-03-08T14:41:57.302Z,93472.06
2023-03-08T14:44:29.262Z,93500.84
2023-03-08T14:47:09.089Z,93483.81
2023-03-08T14:49:36.854Z,93490.28
2023-03-08T14:52:08.611Z,93480.59
2023-03-08T14:54:38.490Z,93480.59
2023-03-08T14:57:18.401Z,93470.81
2023-03-08T14:59:48.062Z,93480.16
2023-03-08T15:02:17.635Z,93492.16
2023-03-08T15:04:46.637Z,93451.72
2023-03-08T15:07:20.256Z,93440.38
2023-03-08T15:09:48.823Z,93439.47
2023-03-08T15:12:17.745Z,93439.25
2023-03-08T15:14:47.152Z,93425.09
2023-03-08T15:17:16.778Z,93424.00
2023-03-08T15:19:44.432Z,93427.81
2023-03-08T15:22:14.511Z,93420.41
2023-03-08T15:24:42.188Z,93419.44
2023-03-08T15:27:14.455Z,93401.75
2023-03-08T15:29:43.344Z,93402.19
2023-03-08T15:32:12.524Z,93409.97
2023-03-08T15:34:43.687Z,93397.78
2023-03-08T15:37:15.286Z,93391.63
2023-03-08T15:39:42.955Z,93399.63
2023-03-08T15:42:10.650Z,93398.28
2023-03-08T15:47:29.254Z,93377.66
2023-03-08T15:49:56.999Z,93398.47
2023-03-08T15:52:30.121Z,93386.78
2023-03-08T15:54:58.365Z,93386.69
2023-03-08T15:57:29.061Z,93383.34
2023-03-08T15:59:56.679Z,93374.81
2023-03-08T16:02:24.469Z,93358.91
2023-03-08T16:04:55.813Z,93373.72
2023-03-08T16:07:23.565Z,93384.16
2023-03-08T16:09:51.303Z,93368.44
2023-03-08T16:12:19.051Z,93384.09
2023-03-08T16:14:49.087Z,93367.31
2023-03-08T16:17:17.677Z,93381.53
2023-03-08T16:19:45.500Z,93374.69
2023-03-08T16:22:14.601Z,93383.47
2023-03-08T16:24:42.310Z,93374.69
2023-03-08T16:27:09.974Z,93369.94
2023-03-08T16:29:37.883Z,93365.53
2023-03-08T16:32:06.125Z,93370.53
2023-03-08T16:34:33.961Z,93365.09
2023-03-08T16:37:01.669Z,93347.97
2023-03-08T16:39:30.733Z,93373.50
2023-03-08T16:41:58.545Z,93369.78
2023-03-08T16:44:28.318Z,93371.97
2023-03-08T16:46:56.294Z,93362.41
2023-03-08T16:49:28.210Z,93376.16
2023-03-08T16:51:56.273Z,93373.69
2023-03-08T16:54:24.293Z,93356.22
2023-03-08T16:56:53.329Z,93370.22
2023-03-08T16:59:21.035Z,93372.94
2023-03-08T17:01:49.910Z,93366.78
2023-03-08T17:04:19.385Z,93364.22
2023-03-08T17:06:47.628Z,93361.94
2023-03-08T17:09:15.393Z,93374.41
2023-03-08T17:11:48.337Z,93376.59
2023-03-08T17:14:17.628Z,93377.47
2023-03-08T17:16:45.281Z,93379.03
2023-03-08T17:19:14.264Z,93365.75
2023-03-08T17:21:41.969Z,93371.97
2023-03-08T17:24:12.794Z,93374.91
2023-03-08T17:26:43.161Z,93385.16
2023-03-08T17:29:11.099Z,93389.69
2023-03-08T17:31:42.173Z,93396.81
2023-03-08T17:34:10.134Z,93397.53
2023-03-08T17:36:38.545Z,93409.28
2023-03-08T17:39:06.270Z,93408.59
2023-03-08T17:41:34.308Z,93409.72
2023-03-08T17:44:01.993Z,93419.81
2023-03-08T17:46:30.204Z,93421.94
2023-03-08T17:48:59.276Z,93414.38
2023-03-08T17:51:29.218Z,93423.72
2023-03-08T17:53:58.182Z,93426.03
2023-03-08T17:56:29.188Z,93408.06
2023-03-08T17:58:58.265Z,93405.69
2023-03-08T18:01:28.299Z,93404.94
2023-03-08T18:03:57.651Z,93389.31
2023-03-08T18:06:29.689Z,93402.75
2023-03-08T18:08:57.920Z,93403.78
2023-03-08T18:11:26.048Z,93399.81
2023-03-08T18:13:54.084Z,93401.50
2023-03-08T18:16:23.892Z,93412.25
2023-03-08T18:18:51.821Z,93409.47
2023-03-08T18:21:20.898Z,93408.75
2023-03-08T18:23:50.660Z,93425.84
2023-03-08T18:26:19.419Z,93423.91
2023-03-08T18:28:47.546Z,93416.34
2023-03-08T18:31:17.348Z,93423.03
2023-03-08T18:33:46.133Z,93422.78
2023-03-08T18:36:14.072Z,93412.03
2023-03-08T18:38:42.841Z,93433.53
2023-03-08T18:41:17.509Z,93438.72
2023-03-08T18:43:46.769Z,93437.47
2023-03-08T18:46:15.391Z,93449.44
2023-03-08T18:48:46.297Z,93450.28
2023-03-08T18:51:16.236Z,93445.19
2023-03-08T18:53:44.273Z,93445.19
2023-03-08T18:56:11.913Z,93445.28
2023-03-08T18:58:41.325Z,93449.56
2023-03-08T19:01:12.324Z,93448.22
2023-03-08T19:03:40.125Z,93454.41
2023-03-08T19:06:08.331Z,93464.72
2023-03-08T19:08:36.304Z,93463.16
2023-03-08T19:11:13.455Z,93481.63
2023-03-08T19:13:43.429Z,93480.03
2023-03-08T19:16:22.995Z,93498.38
2023-03-08T19:18:53.296Z,93505.84
2023-03-08T19:21:23.157Z,93534.72
2023-03-08T19:23:51.170Z,93537.84
2023-03-08T19:26:40.538Z,93544.16
2023-03-08T19:29:12.352Z,93539.59
2023-03-08T19:31:42.839Z,93550.88
2023-03-08T19:34:11.567Z,93563.81
2023-03-08T19:36:39.268Z,93554.59
2023-03-08T19:39:08.903Z,93564.34
2023-03-08T19:41:36.673Z,93520.00
2023-03-08T19:44:06.990Z,93554.97
2023-03-08T19:46:37.583Z,93556.75
2023-03-08T19:49:13.599Z,93547.38
2023-03-08T19:51:41.280Z,93542.44
2023-03-08T19:54:09.538Z,93558.66
2023-03-08T19:56:37.464Z,93578.88
2023-03-08T19:59:07.637Z,93591.25
2023-03-08T20:01:37.190Z,93592.84
2023-03-08T20:04:05.836Z,93591.22
2023-03-08T20:06:35.458Z,93580.59
2023-03-08T20:09:04.884Z,93571.34
2023-03-08T20:11:32.835Z,93573.09
2023-03-08T20:14:00.866Z,93573.88
2023-03-08T20:16:29.781Z,93570.88
2023-03-08T20:18:59.277Z,93568.81
2023-03-08T20:21:29.830Z,93571.16
2023-03-08T20:23:59.497Z,93572.59
2023-03-08T20:26:29.109Z,93577.03
2023-03-08T20:28:57.587Z,93597.22
2023-03-08T20:31:26.600Z,93625.19
2023-03-08T20:33:55.680Z,93601.84
2023-03-08T20:36:24.755Z,93577.69
2023-03-08T20:38:52.900Z,93575.00
2023-03-08T20:41:22.468Z,93572.00
2023-03-08T20:43:52.277Z,93575.47
2023-03-08T20:46:23.516Z,93562.78
2023-03-08T20:48:52.181Z,93572.00
2023-03-08T20:51:22.228Z,93574.69
2023-03-08T20:53:55.501Z,93574.69
2023-03-08T20:56:25.291Z,93578.97
2023-03-08T20:58:54.517Z,93554.06
2023-03-08T21:01:25.568Z,93559.94
2023-03-08T21:03:53.354Z,93556.75
2023-03-08T21:06:23.521Z,93555.16
2023-03-08T21:08:55.552Z,93546.41
2023-03-08T21:11:23.744Z,93543.22
2023-03-08T21:13:52.767Z,93541.16
2023-03-08T21:16:23.490Z,93528.63
2023-03-08T21:18:51.763Z,93525.44
2023-03-08T21:21:21.690Z,93528.47
2023-03-08T21:23:50.192Z,93516.25
2023-03-08T21:26:20.721Z,93510.84
2023-03-08T21:28:48.823Z,93506.88
2023-03-08T21:31:17.374Z,93506.06
2023-03-08T21:33:45.084Z,93503.38
2023-03-08T21:36:13.300Z,93499.09
2023-03-08T21:38:41.132Z,93495.09
2023-03-08T21:41:17.524Z,93492.41
2023-03-08T21:43:46.626Z,93485.91
2023-03-08T21:46:14.497Z,93490.81
2023-03-08T21:48:42.311Z,93491.94
2023-03-08T21:51:13.364Z,93491.44
2023-03-08T21:53:41.618Z,93478.59
2023-03-08T21:56:10.857Z,93484.78
2023-03-08T21:58:39.279Z,93487.63
2023-03-08T22:01:08.804Z,93480.34
2023-03-08T22:03:38.085Z,93470.03
2023-03-08T22:06:08.733Z,93464.47
2023-03-08T22:08:36.409Z,93465.25
2023-03-08T22:11:05.946Z,93465.88
2023-03-08T22:13:37.165Z,93461.75
2023-03-08T22:16:05.379Z,93459.53
2023-03-08T22:18:34.512Z,93462.25
2023-03-08T22:21:02.693Z,93460.97
2023-03-08T22:23:31.954Z,93453.97
2023-03-08T22:26:02.637Z,93452.72
2023-03-08T22:28:30.452Z,93448.75
2023-03-08T22:30:58.113Z,93442.53
2023-03-08T22:33:25.773Z,93441.13
2023-03-08T22:35:54.922Z,93448.28
2023-03-08T22:38:22.619Z,93448.28
2023-03-08T22:40:50.326Z,93440.97
2023-03-08T22:43:18.067Z,93445.09
2023-03-08T22:45:45.772Z,93441.78
2023-03-08T22:48:13.398Z,93441.91
2023-03-08T22:50:41.144Z,93439.38
2023-03-08T22:53:10.160Z,93444.63
2023-03-08T23:00:21.967Z,93439.19
2023-03-08T23:02:49.909Z,93443.97
2023-03-08T23:05:19.821Z,93445.06
2023-03-08T23:07:48.009Z,93440.16
2023-03-08T23:10:17.746Z,93439.06
2023-03-08T23:12:45.401Z,93430.00
2023-03-08T23:15:13.365Z,93425.88
2023-03-08T23:17:44.805Z,93430.34
2023-03-08T23:20:13.485Z,93431.13
2023-03-08T23:22:43.310Z,93422.56
2023-03-08T23:25:12.649Z,93427.16
2023-03-08T23:27:40.459Z,93426.34
2023-03-08T23:30:09.412Z,93424.69
2023-03-08T23:32:37.174Z,93424.97
2023-03-08T23:35:07.211Z,93417.28
2023-03-08T23:37:34.896Z,93409.00
2023-03-08T23:40:04.208Z,93404.25
2023-03-08T23:42:34.550Z,93402.88
2023-03-08T23:45:02.180Z,93392.78
2023-03-08T23:47:32.982Z,93398.69
2023-03-08T23:50:00.703Z,93394.53
2023-03-08T23:52:29.754Z,93395.19
2023-03-08T23:55:00.119Z,93402.63
2023-03-08T23:57:27.864Z,93407.84
2023-03-08T23:59:55.540Z,93396.97
